Cotton, Georgia
Current Conditions -  °F | °C
As of 3:55 PM on Tuesday 25 Nov 2014 (Local Time) from KMGR Reporting Station
Moderate Rain Moderate Rain  
Wind Chill: 52°   Ceiling: 600
Heat Index: 52°   Visibility: 5mi
Dew Point: 52°   Wind: 5mph
Humidity: 100%   Direction: 20°NNE
Pressure: 29.99"   Gusts: NA
Location:  31.16°N, 84.07°W
Report Text: KMGR 252055Z AUTO 02004KT 5SM RA OVC006 11/11 A2999 RMK AO2 LTG DSNT E
Loading
Personal Weather Stations






























Interactive Weather Map New forecast layout! Learn more

10-Day Weather Forecast

Advertisements
Track Severe Weather on mobile